Time;durP1;ratioP1;P1;durP2;ratioP2;P2;SDS_P1;SDS_P2;PMS_P1;PMS_P2;Temp;Humidity;BMP_temperature;BMP_pressure;BME280_temperature;BME280_humidity;BME280_pressure;Samples;Min_cycle;Max_cycle;Signal;HPM_P1;HPM_P2
2021/05/30 00:02:25;;;;;;;10.47;6.00;;;;;;;7.70;81.89;102126.27;128520;1101;62005;-85
2021/05/30 00:04:52;;;;;;;8.93;5.33;;;;;;;7.70;81.80;102125.44;128478;1101;62411;-85
2021/05/30 00:07:22;;;;;;;9.20;5.47;;;;;;;7.66;81.77;102126.63;128532;1101;61456;-85
2021/05/30 00:09:54;;;;;;;10.27;5.00;;;;;;;7.59;81.42;102128.92;128564;1101;61968;-85
2021/05/30 00:12:21;;;;;;;8.73;5.23;;;;;;;7.54;81.63;102131.06;128342;1104;63128;-85
2021/05/30 00:14:49;;;;;;;6.57;4.27;;;;;;;7.47;81.36;102125.42;128357;1104;62146;-85
2021/05/30 00:17:16;;;;;;;6.50;4.60;;;;;;;7.39;82.19;102133.09;128393;1104;62139;-85
2021/05/30 00:19:44;;;;;;;9.87;5.70;;;;;;;7.32;82.69;102132.73;128360;1102;62197;-84
2021/05/30 00:22:12;;;;;;;8.83;5.07;;;;;;;7.28;82.72;102126.00;128376;1104;62428;-84
2021/05/30 00:24:39;;;;;;;7.60;5.03;;;;;;;7.25;82.74;102130.70;128375;1105;62844;-84
2021/05/30 00:27:06;;;;;;;8.17;5.53;;;;;;;7.22;83.11;102130.91;128358;1104;62327;-83
2021/05/30 00:29:34;;;;;;;9.90;5.77;;;;;;;7.18;83.12;102125.02;128512;1101;62056;-83
2021/05/30 00:32:01;;;;;;;7.97;5.27;;;;;;;7.17;83.33;102117.25;128537;1101;62137;-83
2021/05/30 00:34:28;;;;;;;9.80;5.20;;;;;;;7.14;83.39;102121.80;128628;1101;62108;-83
2021/05/30 00:36:55;;;;;;;9.00;5.53;;;;;;;7.12;83.37;102122.88;128566;1101;62575;-83
2021/05/30 00:39:22;;;;;;;7.67;4.93;;;;;;;7.11;83.33;102123.83;128457;1101;62151;-83
2021/05/30 00:41:49;;;;;;;12.40;6.03;;;;;;;7.10;83.37;102114.24;128382;1104;62171;-83
2021/05/30 00:44:27;;;;;;;9.93;6.00;;;;;;;7.08;83.61;102124.91;128502;1101;62251;-83
2021/05/30 00:46:58;;;;;;;10.50;5.80;;;;;;;7.09;83.86;102120.45;128580;1101;61469;-83
2021/05/30 00:49:27;;;;;;;9.93;6.30;;;;;;;7.09;83.84;102118.66;128389;1102;62775;-83
2021/05/30 00:51:55;;;;;;;9.20;5.37;;;;;;;7.10;83.87;102122.16;128333;1104;62384;-83
2021/05/30 00:54:22;;;;;;;12.23;6.13;;;;;;;7.07;83.70;102112.66;128540;1101;61992;-83
2021/05/30 00:56:49;;;;;;;11.17;6.33;;;;;;;7.04;84.10;102109.42;128382;1104;63086;-83
2021/05/30 00:59:17;;;;;;;10.00;6.40;;;;;;;7.01;84.69;102114.92;128558;1101;62188;-83
2021/05/30 01:01:44;;;;;;;9.43;5.80;;;;;;;6.99;84.44;102130.02;128416;1101;62578;-82
2021/05/30 01:04:12;;;;;;;10.47;6.27;;;;;;;7.00;84.53;102131.72;128515;1101;62025;-82
2021/05/30 01:06:40;;;;;;;10.33;5.83;;;;;;;7.00;84.78;102127.28;128584;1101;62595;-82
2021/05/30 01:09:07;;;;;;;12.43;5.80;;;;;;;7.01;84.68;102130.75;128335;1104;61506;-82
2021/05/30 01:11:35;;;;;;;11.03;5.97;;;;;;;7.02;84.78;102129.81;128357;1104;62631;-82
2021/05/30 01:14:05;;;;;;;12.13;6.50;;;;;;;7.00;84.58;102129.92;128410;1101;62879;-82
2021/05/30 01:16:33;;;;;;;12.77;6.13;;;;;;;6.99;84.80;102135.30;128543;1101;62083;-82
2021/05/30 01:19:01;;;;;;;10.03;6.13;;;;;;;6.97;85.09;102132.80;128549;1101;62066;-82
2021/05/30 01:21:28;;;;;;;11.00;5.83;;;;;;;6.94;84.58;102127.73;128540;1101;62090;-83
2021/05/30 01:23:56;;;;;;;8.83;5.77;;;;;;;6.91;84.34;102123.55;128365;1104;62040;-82
2021/05/30 01:26:25;;;;;;;10.33;6.33;;;;;;;6.88;84.56;102129.03;128347;1104;62328;-82
2021/05/30 01:28:52;;;;;;;10.57;6.10;;;;;;;6.83;84.71;102125.91;128572;1101;62189;-82
2021/05/30 01:31:20;;;;;;;11.07;6.33;;;;;;;6.79;84.75;102129.73;128546;1101;62093;-82
2021/05/30 01:33:47;;;;;;;14.00;6.03;;;;;;;6.76;84.75;102123.84;128351;1104;62036;-83
2021/05/30 01:36:15;;;;;;;13.80;6.77;;;;;;;6.73;85.14;102127.55;128611;1101;62003;-83
2021/05/30 01:38:42;;;;;;;8.20;5.43;;;;;;;6.72;85.59;102128.52;128372;1102;62144;-83
2021/05/30 01:41:10;;;;;;;12.27;7.57;;;;;;;6.73;85.91;102130.19;128339;1104;62084;-83
2021/05/30 01:43:37;;;;;;;9.37;5.93;;;;;;;6.73;85.91;102130.19;128337;1104;61956;-83
2021/05/30 01:46:04;;;;;;;10.80;7.07;;;;;;;6.74;85.99;102131.89;128551;1101;62020;-83
2021/05/30 01:48:31;;;;;;;13.97;7.43;;;;;;;6.67;85.71;102120.95;128567;1101;61985;-82
2021/05/30 01:50:58;;;;;;;11.30;6.73;;;;;;;6.72;85.78;102133.80;128347;1104;62333;-82
2021/05/30 01:54:06;;;;;;;11.73;7.03;;;;;;;6.71;85.59;102134.73;128372;1104;62058;-82
2021/05/30 01:59:07;;;;;;;12.03;6.53;;;;;;;6.63;85.54;102137.09;128542;1101;61988;-82
2021/05/30 02:01:35;;;;;;;13.10;6.73;;;;;;;6.60;85.94;102139.97;128366;1104;62051;-82
2021/05/30 02:04:05;;;;;;;12.50;6.83;;;;;;;6.58;85.54;102136.61;128542;1101;62109;-82
2021/05/30 02:06:33;;;;;;;10.13;6.57;;;;;;;6.49;85.29;102124.95;128324;1101;62099;-82
2021/05/30 02:09:02;;;;;;;13.10;6.07;;;;;;;6.53;85.75;102140.42;128389;1102;61994;-82
2021/05/30 02:11:34;;;;;;;12.63;7.17;;;;;;;6.48;85.46;102142.57;128365;1104;62378;-83
2021/05/30 02:14:02;;;;;;;9.80;6.67;;;;;;;6.43;84.64;102149.13;128397;1101;62122;-82
2021/05/30 02:16:32;;;;;;;10.10;6.27;;;;;;;6.37;85.14;102139.85;128574;1101;62029;-82
2021/05/30 02:18:59;;;;;;;10.63;5.83;;;;;;;6.35;85.33;102147.03;128512;1101;61960;-82
2021/05/30 02:21:45;;;;;;;12.73;6.60;;;;;;;6.33;85.36;102144.53;128564;1101;61915;-82
2021/05/30 02:24:13;;;;;;;;;;;;;;;6.29;85.49;102140.44;128450;1102;62084;-82
2021/05/30 02:26:41;;;;;;;11.37;6.33;;;;;;;6.26;85.66;102134.53;128383;1102;62090;-82
2021/05/30 02:29:09;;;;;;;10.27;6.20;;;;;;;6.22;85.22;102136.54;128361;1101;63988;-82
2021/05/30 02:31:36;;;;;;;11.10;6.10;;;;;;;6.16;85.08;102136.14;128495;1101;62044;-83
2021/05/30 02:34:03;;;;;;;14.70;7.47;;;;;;;6.12;85.53;102141.65;128377;1104;61962;-81
2021/05/30 02:36:31;;;;;;;13.03;6.33;;;;;;;6.10;84.86;102140.92;128530;1101;62292;-82
2021/05/30 02:38:58;;;;;;;9.87;6.33;;;;;;;6.05;84.94;102142.19;128520;1101;62230;-82
2021/05/30 02:41:25;;;;;;;12.83;6.77;;;;;;;6.00;85.78;102137.25;128369;1101;62513;-82
2021/05/30 02:43:52;;;;;;;10.57;5.90;;;;;;;5.99;85.87;102143.45;128326;1104;63337;-84
2021/05/30 02:46:19;;;;;;;12.47;6.60;;;;;;;5.97;85.54;102134.85;128358;1104;62113;-80
2021/05/30 02:48:46;;;;;;;9.80;5.43;;;;;;;5.91;85.74;102137.89;128545;1101;62280;-81
2021/05/30 02:51:13;;;;;;;9.23;5.90;;;;;;;5.88;85.78;102145.98;128355;1104;62146;-80
2021/05/30 02:53:41;;;;;;;11.70;6.07;;;;;;;5.85;85.54;102141.78;128386;1104;62090;-80
2021/05/30 02:56:08;;;;;;;10.50;5.50;;;;;;;5.85;85.42;102149.69;128566;1101;62151;-81
2021/05/30 02:58:35;;;;;;;12.60;5.67;;;;;;;5.84;85.30;102155.89;128385;1101;63315;-81
2021/05/30 03:01:02;;;;;;;9.27;5.93;;;;;;;5.79;85.55;102149.28;128334;1104;62296;-81
2021/05/30 03:03:29;;;;;;;8.90;6.03;;;;;;;5.73;85.84;102155.80;128376;1102;62436;-81
2021/05/30 03:05:56;;;;;;;9.47;6.20;;;;;;;5.68;85.95;102153.50;128342;1104;63267;-80
2021/05/30 03:08:23;;;;;;;11.70;6.50;;;;;;;5.66;87.16;102160.66;128549;1101;62135;-81
2021/05/30 03:10:50;;;;;;;10.90;6.43;;;;;;;5.64;86.46;102156.45;128583;1101;61996;-81
2021/05/30 03:13:17;;;;;;;12.27;7.00;;;;;;;5.65;87.10;102153.73;128540;1101;62106;-81
2021/05/30 03:15:44;;;;;;;10.87;6.87;;;;;;;5.67;86.71;102156.23;128598;1101;62225;-82
2021/05/30 03:18:12;;;;;;;9.93;5.43;;;;;;;5.65;86.68;102148.47;128559;1101;62324;-81
2021/05/30 03:20:39;;;;;;;8.57;5.67;;;;;;;5.67;87.33;102150.97;128340;1102;62245;-80
2021/05/30 03:23:08;;;;;;;9.50;5.80;;;;;;;5.69;87.01;102155.17;128581;1101;62091;-80
2021/05/30 03:25:36;;;;;;;9.00;5.80;;;;;;;5.70;86.67;102156.88;128351;1104;62336;-81
2021/05/30 03:28:04;;;;;;;7.80;4.70;;;;;;;5.70;86.84;102154.23;128404;1102;62049;-81
2021/05/30 03:30:32;;;;;;;10.10;5.53;;;;;;;5.73;87.14;102150.54;128382;1101;62006;-79
2021/05/30 03:33:00;;;;;;;8.00;5.23;;;;;;;5.75;86.65;102153.91;128567;1101;62057;-79
2021/05/30 03:35:28;;;;;;;9.60;6.20;;;;;;;5.78;87.23;102160.74;128357;1104;61973;-80
2021/05/30 03:37:56;;;;;;;8.80;5.57;;;;;;;5.81;86.75;102160.55;128510;1101;62250;-80
2021/05/30 03:40:33;;;;;;;11.97;6.07;;;;;;;5.79;87.14;102160.65;128337;1104;62373;-80
2021/05/30 03:43:00;;;;;;;9.47;5.90;;;;;;;5.82;87.47;102154.31;128369;1104;62876;-80
2021/05/30 03:45:28;;;;;;;10.23;5.90;;;;;;;5.86;87.49;102153.98;128338;1104;62215;-80
2021/05/30 03:47:55;;;;;;;8.03;5.27;;;;;;;5.87;86.96;102146.95;128542;1101;62505;-79
2021/05/30 03:50:22;;;;;;;10.77;5.53;;;;;;;5.87;86.52;102147.78;128570;1101;61940;-80
2021/05/30 03:52:49;;;;;;;9.70;5.97;;;;;;;5.89;86.58;102145.05;128402;1102;62009;-80
2021/05/30 03:55:16;;;;;;;11.50;7.03;;;;;;;5.92;87.18;102144.82;128491;1101;62908;-79
2021/05/30 03:57:44;;;;;;;11.77;6.90;;;;;;;5.96;87.14;102156.02;128343;1104;62283;-79
2021/05/30 04:00:16;;;;;;;9.47;6.27;;;;;;;5.99;87.20;102155.79;128345;1104;62055;-80
2021/05/30 04:02:43;;;;;;;10.90;6.87;;;;;;;6.03;87.86;102160.73;128356;1104;61988;-79
2021/05/30 04:05:12;;;;;;;9.57;6.37;;;;;;;6.07;87.78;102154.29;128603;1101;62042;-80
2021/05/30 04:07:40;;;;;;;10.77;6.13;;;;;;;6.12;88.09;102162.73;128596;1101;63247;-80
2021/05/30 04:10:10;;;;;;;10.27;6.43;;;;;;;6.16;88.15;102159.86;128321;1104;62168;-80
2021/05/30 04:12:39;;;;;;;13.93;7.00;;;;;;;6.22;88.45;102159.42;128299;1105;62233;-82
2021/05/30 04:15:08;;;;;;;12.70;6.03;;;;;;;6.28;87.94;102161.62;128348;1104;62221;-81
2021/05/30 04:17:36;;;;;;;11.47;6.63;;;;;;;6.37;87.84;102162.74;128367;1101;62209;-80
2021/05/30 04:20:12;;;;;;;11.27;6.80;;;;;;;6.44;87.59;102167.47;128535;1101;63314;-80
2021/05/30 04:22:40;;;;;;;12.77;7.13;;;;;;;6.53;87.65;102165.95;128314;1104;62205;-81
2021/05/30 04:25:09;;;;;;;10.43;5.93;;;;;;;6.66;88.06;102153.54;128371;1104;62004;-80
2021/05/30 04:27:40;;;;;;;8.93;6.53;;;;;;;6.78;87.98;102157.08;128366;1102;62207;-80
2021/05/30 04:30:11;;;;;;;14.43;7.00;;;;;;;6.88;87.87;102163.33;128322;1104;62436;-81
2021/05/30 04:32:38;;;;;;;11.07;6.57;;;;;;;6.98;87.43;102160.02;128562;1101;62667;-79
2021/05/30 04:35:07;;;;;;;10.77;6.57;;;;;;;7.08;87.67;102167.13;128361;1101;61954;-80
2021/05/30 04:37:34;;;;;;;12.43;7.20;;;;;;;7.19;87.32;102163.67;128390;1104;62039;-80
2021/05/30 04:40:02;;;;;;;13.73;8.10;;;;;;;7.27;86.89;102171.84;128363;1104;62391;-80
2021/05/30 04:42:29;;;;;;;15.73;7.30;;;;;;;7.34;86.78;102162.48;128582;1101;62089;-81
2021/05/30 04:44:56;;;;;;;14.10;7.83;;;;;;;7.42;86.34;102158.44;128333;1104;62151;-80
2021/05/30 04:47:23;;;;;;;15.00;7.50;;;;;;;7.51;86.87;102166.47;128308;1104;62070;-80
2021/05/30 04:49:50;;;;;;;10.47;6.77;;;;;;;7.60;86.60;102172.84;128529;1101;62064;-80
2021/05/30 04:52:17;;;;;;;10.23;6.70;;;;;;;7.66;86.79;102166.25;128317;1104;62065;-80
2021/05/30 04:54:44;;;;;;;12.73;7.00;;;;;;;7.74;86.57;102166.50;128341;1104;62093;-80
2021/05/30 04:57:11;;;;;;;12.07;6.77;;;;;;;7.76;87.08;102167.22;128526;1101;62914;-80
2021/05/30 04:59:39;;;;;;;13.40;6.83;;;;;;;7.79;86.03;102171.41;128361;1101;62155;-80
2021/05/30 05:02:06;;;;;;;13.13;6.97;;;;;;;7.86;86.30;102167.31;128368;1104;62094;-81
2021/05/30 05:04:33;;;;;;;15.13;6.73;;;;;;;7.93;86.09;102173.81;128570;1101;61353;-81
2021/05/30 05:07:00;;;;;;;9.57;5.90;;;;;;;7.98;86.79;102171.64;128406;1101;62003;-81
2021/05/30 05:09:27;;;;;;;12.30;7.47;;;;;;;8.04;86.63;102168.52;128608;1101;62886;-81
2021/05/30 05:11:55;;;;;;;12.30;7.23;;;;;;;8.11;86.71;102161.77;128367;1101;62178;-81
2021/05/30 05:14:22;;;;;;;15.37;7.47;;;;;;;8.26;87.31;102172.08;128369;1102;62223;-81
2021/05/30 05:16:49;;;;;;;14.70;8.03;;;;;;;8.35;86.62;102169.55;128568;1101;61522;-81
2021/05/30 05:19:16;;;;;;;15.07;8.53;;;;;;;8.46;86.98;102171.34;128574;1101;62632;-81
2021/05/30 05:21:43;;;;;;;14.70;7.03;;;;;;;8.54;86.63;102173.35;128390;1102;61993;-79
2021/05/30 05:24:11;;;;;;;14.83;7.20;;;;;;;8.61;85.96;102171.04;128527;1101;62211;-80
2021/05/30 05:26:38;;;;;;;15.70;6.73;;;;;;;8.71;86.04;102169.33;128352;1105;62155;-80
2021/05/30 05:29:04;;;;;;;16.23;6.40;;;;;;;8.78;85.29;102165.22;128576;1101;62122;-80
2021/05/30 05:31:31;;;;;;;12.63;6.97;;;;;;;8.89;85.52;102172.27;128575;1101;62071;-80
2021/05/30 05:33:59;;;;;;;14.03;7.53;;;;;;;9.01;85.47;102165.09;128326;1104;62326;-80
2021/05/30 05:36:26;;;;;;;17.37;7.60;;;;;;;9.15;85.21;102167.44;128351;1101;62119;-81
2021/05/30 05:38:53;;;;;;;10.63;5.00;;;;;;;9.26;85.21;102170.00;128550;1101;62022;-81
2021/05/30 05:41:20;;;;;;;11.27;6.70;;;;;;;9.37;84.69;102162.00;128559;1101;62615;-81
2021/05/30 05:43:48;;;;;;;13.63;7.83;;;;;;;9.50;84.72;102166.23;128307;1104;62122;-81
2021/05/30 05:46:15;;;;;;;19.50;8.27;;;;;;;9.61;83.70;102158.22;128382;1101;63008;-82
2021/05/30 05:48:43;;;;;;;18.47;8.20;;;;;;;9.73;83.94;102167.76;128299;1104;62234;-82
2021/05/30 05:51:10;;;;;;;23.23;8.23;;;;;;;9.86;83.21;102164.02;128580;1101;62271;-81
2021/05/30 05:53:37;;;;;;;18.73;10.07;;;;;;;9.95;82.88;102160.58;128520;1101;62074;-82
2021/05/30 05:56:04;;;;;;;14.63;6.80;;;;;;;10.04;82.22;102166.88;128366;1102;62172;-81
2021/05/30 05:58:31;;;;;;;13.33;7.30;;;;;;;10.10;82.38;102167.17;128524;1101;62048;-82
2021/05/30 06:00:59;;;;;;;18.60;8.97;;;;;;;10.20;81.92;102165.39;128309;1104;62100;-82
2021/05/30 06:03:26;;;;;;;14.07;7.03;;;;;;;10.29;82.29;102160.25;128592;1101;62134;-82
2021/05/30 06:05:53;;;;;;;16.77;8.50;;;;;;;10.38;81.62;102162.09;128500;1101;62037;-82
2021/05/30 06:08:20;;;;;;;16.90;8.93;;;;;;;10.49;81.29;102166.44;128346;1104;62035;-82
2021/05/30 06:10:47;;;;;;;11.37;6.67;;;;;;;10.61;80.22;102168.82;128529;1101;61995;-82
2021/05/30 06:13:14;;;;;;;15.53;8.50;;;;;;;10.71;80.34;102160.02;128350;1104;62099;-82
2021/05/30 06:15:43;;;;;;;16.67;9.23;;;;;;;10.75;79.23;102159.62;128549;1101;62132;-82
2021/05/30 06:18:14;;;;;;;11.03;5.37;;;;;;;10.81;79.17;102152.89;128355;1101;62323;-82
2021/05/30 06:20:44;;;;;;;12.80;6.80;;;;;;;10.90;79.00;102157.38;128529;1101;62878;-82
2021/05/30 06:23:12;;;;;;;15.40;8.43;;;;;;;10.99;78.65;102143.23;128573;1101;62881;-82
2021/05/30 06:25:41;;;;;;;8.93;5.80;;;;;;;11.12;78.66;102147.42;128299;1104;62049;-82
2021/05/30 06:28:09;;;;;;;12.53;6.93;;;;;;;11.22;78.49;102148.24;128573;1101;61397;-83
2021/05/30 06:30:38;;;;;;;17.10;9.10;;;;;;;11.34;77.82;102152.38;128485;1101;62227;-83
2021/05/30 06:33:08;;;;;;;13.40;8.73;;;;;;;11.47;77.75;102151.23;128361;1101;62027;-81
2021/05/30 06:35:39;;;;;;;13.97;6.40;;;;;;;11.60;77.18;102151.73;128568;1101;62009;-80
2021/05/30 06:38:07;;;;;;;16.10;8.23;;;;;;;11.73;77.44;102152.27;128538;1102;62057;-81
2021/05/30 06:40:34;;;;;;;12.30;7.83;;;;;;;11.90;76.41;102155.13;128347;1104;62155;-80
2021/05/30 06:43:01;;;;;;;16.33;8.37;;;;;;;12.02;76.04;102153.95;128509;1101;62041;-80
2021/05/30 06:45:28;;;;;;;16.95;8.60;;;;;;;12.14;76.08;102158.09;128537;1101;61989;-79
2021/05/30 06:47:58;;;;;;;13.87;8.03;;;;;;;12.30;75.64;102153.92;128533;1101;63613;-79
2021/05/30 06:50:25;;;;;;;12.50;8.63;;;;;;;12.36;74.20;102154.16;128554;1101;62668;-79
2021/05/30 06:52:53;;;;;;;13.70;7.30;;;;;;;12.48;74.44;102154.78;128369;1101;61991;-80
2021/05/30 06:55:22;;;;;;;13.97;8.27;;;;;;;12.60;74.43;102156.23;128569;1101;62360;-80
2021/05/30 06:57:49;;;;;;;12.47;7.13;;;;;;;12.74;74.42;102154.02;128448;1101;61978;-82
2021/05/30 07:00:17;;;;;;;14.70;7.83;;;;;;;12.91;73.19;102157.66;128381;1101;62862;-80
2021/05/30 07:02:44;;;;;;;17.13;8.70;;;;;;;13.04;72.81;102148.25;128341;1104;61930;-81
2021/05/30 07:05:12;;;;;;;14.43;8.40;;;;;;;13.19;72.74;102147.69;128562;1101;62580;-79
2021/05/30 07:07:39;;;;;;;11.90;7.57;;;;;;;13.29;70.45;102143.13;128543;1101;61972;-79
2021/05/30 07:10:11;;;;;;;8.83;5.30;;;;;;;13.37;69.92;102150.35;128537;1101;62677;-79
2021/05/30 07:12:38;;;;;;;11.33;7.00;;;;;;;13.49;70.03;102141.06;128597;1101;63134;-79
2021/05/30 07:15:06;;;;;;;12.27;7.77;;;;;;;13.58;69.88;102141.94;128505;1101;62907;-79
2021/05/30 07:17:33;;;;;;;13.33;7.03;;;;;;;13.68;69.85;102142.66;128588;1101;62027;-78
2021/05/30 07:20:00;;;;;;;15.20;8.40;;;;;;;13.78;69.06;102146.05;128347;1101;62280;-78
2021/05/30 07:22:29;;;;;;;16.17;8.17;;;;;;;13.81;68.12;102140.41;128615;1101;62545;-79
2021/05/30 07:24:56;;;;;;;14.00;6.73;;;;;;;13.85;67.79;102146.23;128539;1101;62037;-79
2021/05/30 07:27:23;;;;;;;13.13;7.97;;;;;;;13.92;68.35;102151.75;128565;1101;62178;-79
2021/05/30 07:29:50;;;;;;;10.87;6.93;;;;;;;14.04;67.44;102142.47;128338;1104;62067;-78
2021/05/30 07:32:17;;;;;;;10.10;6.30;;;;;;;14.17;67.85;102140.16;128552;1101;62157;-79
2021/05/30 07:34:44;;;;;;;10.87;6.50;;;;;;;14.26;66.47;102146.38;128560;1101;62893;-78
2021/05/30 07:37:11;;;;;;;13.30;6.40;;;;;;;14.36;66.46;102143.54;128320;1104;62631;-77
2021/05/30 07:39:38;;;;;;;12.43;7.07;;;;;;;14.47;66.08;102137.88;128501;1101;62065;-78
2021/05/30 07:42:06;;;;;;;9.50;5.93;;;;;;;14.56;64.14;102146.78;128548;1101;62194;-78
2021/05/30 07:44:33;;;;;;;8.50;5.57;;;;;;;14.60;63.45;102145.42;128358;1104;62081;-78
2021/05/30 07:47:05;;;;;;;24.87;16.87;;;;;;;14.65;64.54;102140.44;128571;1101;62079;-79
2021/05/30 07:49:32;;;;;;;14.07;7.00;;;;;;;14.78;64.91;102134.59;128502;1101;62344;-79
2021/05/30 07:52:01;;;;;;;12.00;6.40;;;;;;;14.85;63.90;102136.44;128319;1105;63687;-79
2021/05/30 07:54:28;;;;;;;10.83;5.57;;;;;;;14.93;63.74;102143.59;128579;1101;61992;-79
2021/05/30 07:56:55;;;;;;;12.47;6.63;;;;;;;15.03;64.32;102138.09;128517;1101;62703;-79
2021/05/30 07:59:22;;;;;;;8.97;5.83;;;;;;;15.19;63.42;102138.05;128375;1101;62359;-79
2021/05/30 08:01:51;;;;;;;5.97;4.60;;;;;;;15.22;61.57;102131.55;128605;1101;62137;-79
2021/05/30 08:04:18;;;;;;;12.73;7.07;;;;;;;15.29;62.70;102136.02;128544;1101;62165;-79
2021/05/30 08:06:46;;;;;;;12.47;7.20;;;;;;;15.37;62.57;102135.17;128341;1104;62566;-79
2021/05/30 08:09:13;;;;;;;8.50;5.17;;;;;;;15.48;63.48;102129.45;128508;1101;62208;-79
2021/05/30 08:11:40;;;;;;;8.90;4.90;;;;;;;15.57;61.43;102130.25;128614;1101;62437;-79
2021/05/30 08:14:09;;;;;;;7.57;4.37;;;;;;;15.67;61.41;102130.06;128296;1104;62561;-79
2021/05/30 08:16:43;;;;;;;9.50;5.70;;;;;;;15.76;60.34;102129.05;128545;1101;62256;-79
2021/05/30 08:19:12;;;;;;;9.83;6.00;;;;;;;15.79;60.47;102128.71;128550;1101;61940;-79
2021/05/30 08:21:44;;;;;;;9.57;4.70;;;;;;;15.80;59.72;102130.36;128524;1101;62592;-79
2021/05/30 08:24:12;;;;;;;10.80;6.10;;;;;;;15.89;60.19;102123.95;128332;1102;62401;-79
2021/05/30 08:26:51;;;;;;;8.47;5.43;;;;;;;15.99;60.28;102128.27;128579;1101;62935;-79
2021/05/30 08:29:19;;;;;;;5.67;3.17;;;;;;;16.10;58.66;102130.55;128280;1104;61974;-80
2021/05/30 08:31:49;;;;;;;8.70;5.30;;;;;;;16.19;59.58;102129.48;128589;1101;62058;-79
2021/05/30 08:34:17;;;;;;;9.30;5.03;;;;;;;16.33;59.23;102129.75;128341;1101;62149;-79
2021/05/30 08:36:45;;;;;;;11.00;5.23;;;;;;;16.47;59.62;102128.98;128336;1101;62865;-78
2021/05/30 08:39:13;;;;;;;8.23;4.53;;;;;;;16.63;58.12;102126.16;128347;1101;62862;-78
2021/05/30 08:41:41;;;;;;;8.77;5.17;;;;;;;16.77;58.81;102126.40;128338;1102;61971;-83
2021/05/30 08:44:10;;;;;;;7.53;4.43;;;;;;;16.90;58.93;102122.10;128304;1104;62151;-82
2021/05/30 08:46:38;;;;;;;5.30;3.73;;;;;;;16.96;57.41;102130.42;128532;1101;62286;-82
2021/05/30 08:49:06;;;;;;;8.40;5.17;;;;;;;16.96;57.58;102122.38;128351;1102;62193;-82
2021/05/30 08:51:38;;;;;;;10.73;4.93;;;;;;;16.99;56.65;102122.86;128524;1101;62870;-82
2021/05/30 08:54:10;;;;;;;8.80;4.17;;;;;;;17.10;56.82;102126.94;128356;1101;62078;-83
2021/05/30 08:56:39;;;;;;;8.53;4.57;;;;;;;17.17;56.74;102127.03;128326;1101;61821;-82
2021/05/30 08:59:28;;;;;;;8.53;4.17;;;;;;;17.27;56.55;102119.55;128303;1104;62254;-81
2021/05/30 09:02:13;;;;;;;5.13;3.70;;;;;;;17.43;57.00;102110.50;128525;1101;62053;-78
2021/05/30 09:04:44;;;;;;;5.45;3.85;;;;;;;17.58;55.28;102107.81;128536;1101;62503;-79
2021/05/30 09:07:11;;;;;;;7.10;3.50;;;;;;;17.61;54.48;102107.42;128464;1101;62847;-78
2021/05/30 09:09:46;;;;;;;6.70;4.03;;;;;;;17.71;55.34;102107.97;128487;1101;62045;-79
2021/05/30 09:12:24;;;;;;;6.43;4.20;;;;;;;17.81;54.25;102113.88;128462;1101;62738;-78
2021/05/30 09:14:54;;;;;;;7.23;4.00;;;;;;;17.87;54.29;102115.84;128364;1104;63443;-77
2021/05/30 09:17:26;;;;;;;7.37;4.20;;;;;;;17.82;52.63;102110.19;128320;1104;62891;-79
2021/05/30 09:19:55;;;;;;;7.00;4.10;;;;;;;17.81;52.48;102111.20;128309;1104;62089;-78
2021/05/30 09:22:22;;;;;;;5.47;4.03;;;;;;;17.84;52.84;102113.52;128371;1104;62202;-78
2021/05/30 09:24:52;;;;;;;7.87;3.67;;;;;;;17.95;52.91;102108.69;128506;1101;62476;-78
2021/05/30 09:27:46;;;;;;;6.70;3.77;;;;;;;18.11;53.27;102109.28;128409;1102;61407;-78
2021/05/30 09:30:13;;;;;;;5.50;3.50;;;;;;;18.31;50.86;102105.97;128349;1104;63159;-77
2021/05/30 09:33:03;;;;;;;6.77;3.97;;;;;;;18.27;50.10;102108.20;128549;1101;62002;-78
2021/05/30 09:35:44;;;;;;;6.50;3.40;;;;;;;18.28;50.25;102103.68;128511;1101;62037;-78
2021/05/30 09:38:21;;;;;;;6.43;3.90;;;;;;;18.29;49.63;102098.09;128382;1102;62567;-77
2021/05/30 09:40:53;;;;;;;4.80;2.83;;;;;;;18.38;50.51;102100.66;128558;1101;62516;-78
2021/05/30 09:43:26;;;;;;;3.67;2.77;;;;;;;18.42;48.41;102102.76;128480;1101;62706;-77
2021/05/30 09:46:02;;;;;;;5.60;3.70;;;;;;;18.38;48.39;102106.85;128544;1101;62255;-77
2021/05/30 09:48:30;;;;;;;7.80;4.23;;;;;;;18.45;49.43;102109.63;128532;1101;63550;-78
2021/05/30 09:51:07;;;;;;;5.67;4.00;;;;;;;18.58;50.13;102104.36;128568;1101;62410;-77
2021/05/30 09:53:52;;;;;;;7.03;3.70;;;;;;;18.75;48.52;102094.16;128359;1104;61462;-77
2021/05/30 09:56:39;;;;;;;6.75;4.23;;;;;;;18.86;48.99;102100.89;128572;1101;61950;-76
2021/05/30 09:59:09;;;;;;;7.60;4.77;;;;;;;18.97;48.49;102091.45;128460;1101;62123;-76
2021/05/30 10:01:48;;;;;;;4.60;3.07;;;;;;;19.04;47.68;102093.17;128409;1101;61988;-79
2021/05/30 10:04:17;;;;;;;4.63;3.10;;;;;;;19.08;47.43;102093.58;128340;1104;62660;-78
2021/05/30 10:06:44;;;;;;;4.70;3.13;;;;;;;19.23;46.54;102101.54;128386;1104;62006;-79
2021/05/30 10:09:12;;;;;;;4.77;3.07;;;;;;;19.29;46.20;102101.57;128530;1101;61990;-79
2021/05/30 10:11:40;;;;;;;7.40;3.93;;;;;;;19.43;46.37;102097.10;128366;1101;62089;-78
2021/05/30 10:14:08;;;;;;;4.13;2.40;;;;;;;19.52;46.25;102090.52;128335;1104;62036;-78
2021/05/30 10:16:36;;;;;;;7.70;4.20;;;;;;;19.55;45.56;102090.13;128571;1101;61976;-79
2021/05/30 10:19:37;;;;;;;6.27;3.50;;;;;;;19.68;46.51;102093.91;128352;1104;62279;-79
2021/05/30 10:22:04;;;;;;;4.30;2.23;;;;;;;19.88;43.13;102094.82;128512;1101;62654;-79
2021/05/30 10:24:32;;;;;;;7.00;2.10;;;;;;;20.04;43.62;102085.55;128490;1101;62509;-79
2021/05/30 10:27:20;;;;;;;5.83;3.00;;;;;;;20.22;43.64;102087.64;128528;1101;62407;-78
2021/05/30 10:30:12;;;;;;;5.30;3.33;;;;;;;20.32;43.66;102096.16;128359;1104;62308;-79
2021/05/30 10:32:43;;;;;;;6.27;2.40;;;;;;;20.35;42.79;102095.73;128523;1101;62085;-76
2021/05/30 10:35:19;;;;;;;4.27;2.57;;;;;;;20.41;42.36;102087.88;128551;1102;64945;-78
2021/05/30 10:37:49;;;;;;;4.67;1.83;;;;;;;20.57;42.20;102087.45;128362;1104;62153;-78
2021/05/30 10:40:23;;;;;;;2.70;1.67;;;;;;;20.83;41.82;102085.84;128550;1101;62011;-78
2021/05/30 10:43:12;;;;;;;3.90;2.60;;;;;;;21.05;42.54;102078.31;128561;1101;63235;-78
2021/05/30 10:45:42;;;;;;;4.77;2.10;;;;;;;21.25;41.73;102078.25;128535;1101;62059;-77
2021/05/30 10:48:20;;;;;;;5.73;3.10;;;;;;;21.41;40.85;102077.79;128588;1101;62084;-76
2021/05/30 10:53:44;;;;;;;5.80;2.50;;;;;;;21.37;40.68;102080.08;128558;1101;62088;-76
2021/05/30 10:56:23;;;;;;;3.87;2.73;;;;;;;21.17;40.49;102077.45;128535;1101;61952;-76
2021/05/30 10:59:09;;;;;;;4.67;2.27;;;;;;;21.10;41.69;102076.66;128532;1101;62076;-76
2021/05/30 11:04:24;;;;;;;5.23;2.57;;;;;;;20.94;41.47;102067.13;128534;1101;62968;-77
2021/05/30 11:06:52;;;;;;;4.67;2.50;;;;;;;20.99;40.51;102063.79;128514;1101;61991;-77
2021/05/30 11:09:20;;;;;;;2.97;1.87;;;;;;;20.95;41.55;102067.95;128359;1102;62083;-77
2021/05/30 11:12:20;;;;;;;3.90;2.17;;;;;;;20.92;41.06;102061.11;128559;1101;62541;-77
2021/05/30 11:15:09;;;;;;;4.00;2.33;;;;;;;21.09;40.66;102061.48;128530;1101;62872;-77
2021/05/30 11:17:42;;;;;;;3.33;2.27;;;;;;;21.27;39.92;102065.38;128531;1102;62184;-77
2021/05/30 11:20:16;;;;;;;4.03;2.10;;;;;;;21.35;36.75;102057.86;128560;1101;62194;-77
2021/05/30 11:22:46;;;;;;;2.73;1.60;;;;;;;21.40;38.28;102057.25;128385;1101;62030;-77
2021/05/30 11:25:22;;;;;;;2.70;2.00;;;;;;;21.54;38.92;102053.45;128551;1101;61965;-77
2021/05/30 11:28:00;;;;;;;2.87;1.83;;;;;;;21.60;37.72;102062.58;128583;1101;62883;-76
2021/05/30 11:30:44;;;;;;;6.90;2.30;;;;;;;21.55;38.49;102046.21;128505;1101;61698;-77
2021/05/30 11:33:16;;;;;;;4.18;1.68;;;;;;;21.58;38.27;102049.28;128388;1101;62190;-77
2021/05/30 11:35:43;;;;;;;4.87;1.97;;;;;;;21.67;38.65;102049.86;128372;1102;62986;-76
2021/05/30 11:38:10;;;;;;;3.27;1.77;;;;;;;21.76;37.79;102047.73;128578;1101;62149;-77